Rzeszów, Polska

17:53 CEST dnia 28-czerwiec-2017 (GMT +0200)
gen. Komorowskiego | | Change Station

Wysokość 639 ft 50.53 °N, 22.72 °E | Updated 7 minutes ago

pogodnie
pogodnie
84.9 ° F
Odczuwalna 88 ° F
Płn.
1.9
Wiatr zmienny Wiatr od PdPdWs
Gusts 6.8 mph

Dziś
Wysoka -- | Niska -- ° F
--% Prawdop. opadów
Wczoraj
Wysoka -- | Niska -- ° F
Precip. -- cali
Ciśnienie 29.65 cali
Widzialność -9999.0 mil
chmury
Odczucie gorąca 88 ° F
Punkt rosy 69 ° F
Wilgotność 58%
Opady deszczu 0.00 cali
grubość pokrywy śnieżnej Niedostępne.
4:20 AM 8:44 PM
Powiększający się sierp Księżyca, 26% visible
METAR EPRZ 281530Z 17017KT CAVOK 30/17 Q1004
Ciśnienie 29.65 cali
Widzialność -9999.0 mil
chmury
Odczucie gorąca 88 ° F
Punkt rosy 69 ° F
Wilgotność 58%
Opady deszczu 0.00 cali
grubość pokrywy śnieżnej Niedostępne.
4:20 AM 8:44 PM
Powiększający się sierp Księżyca, 26% visible
METAR EPRZ 281530Z 17017KT CAVOK 30/17 Q1004

Get Severe Weather Alerts

Thanks for signing up!

Be on the lookout for a verification email in your inbox.

You'll start receiving the daily forecast at 6 AM.

×

10-Day Weather Forecast

×

Almanac

Astronomia

Jun. 28, 2017 Wschód Zachów
Aktualny czas
Zmierzch cywilny
Zmierzch żeglarski
świt/zmierzch astronomiczny
Księżyc
całkowite oświetlenie
Długość dnia
Tomorrow will be .
, % of the Moon is Illuminated

Dzisiejsze ekstrema

Country Highs Country Lows

Community

WunderPhotos

Category 6

Welcome to Category 6. This is the collective home for Weather Underground's featured writeups by Dr. Jeff Masters (right), Bob Henson (left), Chris Burt, and other regular contributors.

Nearby

Jakość powietrza

  Jakość powietrza czynnik AQ Zanieczyszczenie
Not available.

Głębokość pokrywy śnieżnej

Station Depth n.p.m.

Aktywność sejsmiczna

Miejscowość Distance Mag. Time & Date
Minimum magnitude displayed is 2.5.

Temperatury wody na wybrzeżu

Miejsce Temperatura

Stations

Najbliższa stacja pogodowa

Lokalizacja stacji Temp. czynnik chłodzący wiatru Punkt rosy Wilgotność Wiatr Precip. Wysokość Uaktualniono Typ